Time;durP1;ratioP1;P1;durP2;ratioP2;P2;SDS_P1;SDS_P2;PMS_P1;PMS_P2;Temp;Humidity;BMP_temperature;BMP_pressure;BME280_temperature;BME280_humidity;BME280_pressure;Samples;Min_cycle;Max_cycle;Signal;HPM_P1;HPM_P2
2023/01/25 00:00:49;;;;;;;25.63;15.13;;;;;;;2.51;100.00;99799.00;5010423;28;20228;-75
2023/01/25 00:03:15;;;;;;;25.07;14.57;;;;;;;2.50;100.00;99800.72;5011055;28;20750;-76
2023/01/25 00:05:42;;;;;;;21.63;13.33;;;;;;;2.50;100.00;99802.50;5011025;28;20214;-75
2023/01/25 00:08:08;;;;;;;23.83;13.87;;;;;;;2.43;100.00;99796.47;5010938;28;20213;-74
2023/01/25 00:10:35;;;;;;;22.50;13.87;;;;;;;2.39;100.00;99789.53;5010469;28;20221;-76
2023/01/25 00:13:01;;;;;;;25.13;15.23;;;;;;;2.41;100.00;99790.41;5010785;28;20241;-76
2023/01/25 00:15:30;;;;;;;26.77;14.80;;;;;;;2.43;100.00;99786.03;5010953;28;20221;-76
2023/01/25 00:17:56;;;;;;;24.23;14.80;;;;;;;2.45;100.00;99773.81;5010968;28;20213;-76
2023/01/25 00:20:23;;;;;;;24.87;14.17;;;;;;;2.44;100.00;99777.31;5011089;28;20213;-76
2023/01/25 00:22:49;;;;;;;22.80;13.97;;;;;;;2.44;100.00;99777.31;5014550;28;20228;-76
2023/01/25 00:25:15;;;;;;;23.70;14.40;;;;;;;2.42;100.00;99773.88;5014684;28;20205;-76
2023/01/25 00:27:42;;;;;;;26.47;15.10;;;;;;;2.40;100.00;99773.00;5014557;28;20315;-76
2023/01/25 00:30:09;;;;;;;25.43;14.67;;;;;;;2.39;100.00;99779.09;5013729;28;20695;-76
2023/01/25 00:32:54;;;;;;;23.87;13.90;;;;;;;2.36;100.00;99775.66;5014327;28;20225;-76
2023/01/25 00:35:21;;;;;;;24.60;14.47;;;;;;;2.40;100.00;99780.81;5014380;28;20210;-75
2023/01/25 00:37:49;;;;;;;25.80;14.30;;;;;;;2.48;100.00;99768.56;5014568;28;20220;-76
2023/01/25 00:40:16;;;;;;;23.00;14.07;;;;;;;2.45;100.00;99784.25;5013759;28;20270;-76
2023/01/25 00:42:43;;;;;;;23.17;14.03;;;;;;;2.41;100.00;99790.41;5014193;28;20212;-75
2023/01/25 00:45:11;;;;;;;22.43;14.00;;;;;;;2.39;100.00;99786.09;5014346;28;20694;-75
2023/01/25 00:47:38;;;;;;;21.90;13.30;;;;;;;2.40;100.00;99786.03;5014116;28;20272;-75
2023/01/25 00:50:08;;;;;;;22.60;13.83;;;;;;;2.35;100.00;99780.03;5013611;28;20205;-75
2023/01/25 00:52:34;;;;;;;23.77;13.43;;;;;;;2.40;100.00;99779.97;5014178;28;20316;-75
2023/01/25 00:55:01;;;;;;;25.47;15.17;;;;;;;2.45;100.00;99768.59;5014057;28;20216;-76
2023/01/25 00:57:27;;;;;;;23.90;14.27;;;;;;;2.45;100.00;99763.38;5014001;28;20213;-75
2023/01/25 00:59:54;;;;;;;23.23;13.67;;;;;;;2.45;100.00;99747.72;5013217;28;20217;-75
2023/01/25 01:02:20;;;;;;;23.83;14.00;;;;;;;2.45;100.00;99752.94;5013778;28;20531;-75
2023/01/25 01:04:47;;;;;;;21.67;14.00;;;;;;;2.47;100.00;99760.75;5013985;28;20229;-75
2023/01/25 01:07:15;;;;;;;26.17;13.70;;;;;;;2.44;100.00;99758.19;5014024;28;20239;-75
2023/01/25 01:09:42;;;;;;;24.20;13.60;;;;;;;2.49;100.00;99754.66;5013037;28;20212;-75
2023/01/25 01:12:08;;;;;;;22.67;13.33;;;;;;;2.53;100.00;99758.09;5013766;28;20232;-75
2023/01/25 01:14:35;;;;;;;23.83;13.50;;;;;;;2.52;100.00;99753.75;5013646;28;20229;-75
2023/01/25 01:17:01;;;;;;;20.23;12.40;;;;;;;2.47;100.00;99755.53;5013914;28;20578;-75
2023/01/25 01:19:27;;;;;;;23.30;13.50;;;;;;;2.44;100.00;99761.66;5012898;28;20236;-75
2023/01/25 01:21:54;;;;;;;23.47;13.67;;;;;;;2.45;100.00;99755.56;5013730;28;20236;-75
2023/01/25 01:24:22;;;;;;;23.73;13.40;;;;;;;2.44;100.00;99753.81;5013574;28;20237;-75
2023/01/25 01:26:48;;;;;;;22.63;13.47;;;;;;;2.48;100.00;99757.25;5013418;28;20216;-75
2023/01/25 01:29:15;;;;;;;22.30;13.60;;;;;;;2.50;100.00;99756.38;5012614;28;20236;-75
2023/01/25 01:31:41;;;;;;;23.43;13.70;;;;;;;2.49;100.00;99759.88;5013309;28;20226;-75
2023/01/25 01:34:11;;;;;;;23.00;13.90;;;;;;;2.53;100.00;99763.31;5013409;28;20228;-75
2023/01/25 01:36:38;;;;;;;23.33;14.10;;;;;;;2.54;100.00;99752.84;5013253;28;20213;-76
2023/01/25 01:39:04;;;;;;;21.00;13.00;;;;;;;2.54;100.00;99758.06;5012490;28;20220;-75
2023/01/25 01:41:32;;;;;;;22.67;13.57;;;;;;;2.55;100.00;99754.56;5013263;28;20216;-75
2023/01/25 01:43:59;;;;;;;25.63;14.13;;;;;;;2.52;100.00;99754.59;5012926;28;20237;-75
2023/01/25 01:46:31;;;;;;;23.20;14.47;;;;;;;2.51;100.00;99757.25;5013242;28;20206;-75
2023/01/25 01:49:01;;;;;;;23.40;13.07;;;;;;;2.52;100.00;99756.34;5012410;28;20434;-75
2023/01/25 01:51:41;;;;;;;23.37;13.53;;;;;;;2.57;100.00;99762.41;5013168;28;20240;-75
2023/01/25 01:54:11;;;;;;;23.37;13.30;;;;;;;2.53;100.00;99755.47;5012958;28;20275;-75
2023/01/25 01:56:49;;;;;;;23.37;13.90;;;;;;;2.48;100.00;99757.25;5012879;28;20208;-75
2023/01/25 01:59:16;;;;;;;23.00;12.77;;;;;;;2.48;100.00;99752.94;5011679;28;20209;-75
2023/01/25 02:01:44;;;;;;;24.37;14.00;;;;;;;2.47;100.00;99759.03;5012816;28;20217;-75
2023/01/25 02:04:12;;;;;;;22.70;13.97;;;;;;;2.52;100.00;99761.59;5012713;28;20321;-75
2023/01/25 02:06:45;;;;;;;24.53;14.33;;;;;;;2.46;100.00;99764.25;5012800;28;20671;-75
2023/01/25 02:09:15;;;;;;;23.13;13.33;;;;;;;2.50;100.00;99766.81;5012264;28;20209;-74
2023/01/25 02:11:43;;;;;;;23.73;13.80;;;;;;;2.49;100.00;99752.03;5012643;28;20703;-75
2023/01/25 02:14:10;;;;;;;21.87;13.33;;;;;;;2.45;100.00;99763.38;5012391;28;20248;-75
2023/01/25 02:16:37;;;;;;;23.00;13.63;;;;;;;2.40;100.00;99759.94;5012635;28;20210;-74
2023/01/25 02:19:04;;;;;;;25.93;13.27;;;;;;;2.46;100.00;99754.66;5011989;28;20228;-74
2023/01/25 02:21:39;;;;;;;23.17;13.00;;;;;;;2.45;100.00;99752.94;5012367;28;20216;-74
2023/01/25 02:24:12;;;;;;;23.23;13.20;;;;;;;2.46;100.00;99752.06;5012413;28;20228;-75
2023/01/25 02:26:40;;;;;;;22.27;12.60;;;;;;;2.42;100.00;99747.78;5012498;28;20217;-74
2023/01/25 02:29:08;;;;;;;22.10;12.93;;;;;;;2.47;100.00;99753.81;5011669;28;20263;-74
2023/01/25 02:31:35;;;;;;;27.33;14.57;;;;;;;2.46;100.00;99748.59;5012188;28;20232;-75
2023/01/25 02:34:02;;;;;;;24.13;14.47;;;;;;;2.42;100.00;99739.94;5011966;28;20587;-74
2023/01/25 02:36:30;;;;;;;20.63;12.00;;;;;;;2.40;100.00;99744.28;5012266;28;20229;-75
2023/01/25 02:39:01;;;;;;;20.97;13.27;;;;;;;2.39;100.00;99739.13;5011626;28;20214;-75
2023/01/25 02:41:32;;;;;;;25.27;14.47;;;;;;;2.34;100.00;99739.16;5012235;28;20210;-75
2023/01/25 02:44:00;;;;;;;23.63;13.60;;;;;;;2.40;100.00;99743.44;5011219;28;20237;-75
2023/01/25 02:46:30;;;;;;;24.90;13.67;;;;;;;2.38;100.00;99740.00;5011910;28;20214;-75
2023/01/25 02:48:58;;;;;;;25.23;13.87;;;;;;;2.33;100.00;99740.03;5011337;28;20240;-75
2023/01/25 02:51:27;;;;;;;22.10;13.30;;;;;;;2.38;100.00;99737.41;5011819;28;20718;-75
2023/01/25 02:53:54;;;;;;;23.20;13.23;;;;;;;2.37;100.00;99738.25;5011902;28;20244;-74
2023/01/25 02:56:21;;;;;;;23.00;13.90;;;;;;;2.33;100.00;99734.81;5011748;28;20228;-75
2023/01/25 02:58:48;;;;;;;22.60;13.53;;;;;;;2.28;100.00;99731.38;5011145;28;20209;-75
2023/01/25 03:01:17;;;;;;;22.73;13.17;;;;;;;2.30;100.00;99727.03;5011816;28;20598;-75
2023/01/25 03:03:43;;;;;;;21.23;12.70;;;;;;;2.30;100.00;99715.72;5011835;28;20252;-74
2023/01/25 03:06:10;;;;;;;21.53;12.30;;;;;;;2.34;100.00;99718.28;5011802;28;20233;-75
2023/01/25 03:08:37;;;;;;;20.83;11.83;;;;;;;2.36;100.00;99719.13;5011769;28;20625;-75
2023/01/25 03:11:05;;;;;;;21.27;12.47;;;;;;;2.26;100.00;99712.28;5011156;28;20252;-75
2023/01/25 03:13:33;;;;;;;21.60;12.93;;;;;;;2.32;100.00;99709.63;5011397;28;20236;-75
2023/01/25 03:16:01;;;;;;;26.13;13.40;;;;;;;2.30;100.00;99710.50;5011508;28;20688;-75
2023/01/25 03:18:29;;;;;;;21.30;13.47;;;;;;;2.29;100.00;99709.66;5011643;28;20206;-75
2023/01/25 03:20:56;;;;;;;23.30;13.00;;;;;;;2.22;100.00;99701.91;5010815;28;20212;-75
2023/01/25 03:23:22;;;;;;;22.23;12.53;;;;;;;2.27;100.00;99695.75;5011397;28;20224;-75
2023/01/25 03:25:50;;;;;;;24.23;12.80;;;;;;;2.27;100.00;99698.34;5011484;28;20567;-74
2023/01/25 03:28:17;;;;;;;24.43;12.40;;;;;;;2.25;100.00;99700.13;5011695;28;20213;-76
2023/01/25 03:30:43;;;;;;;23.37;13.07;;;;;;;2.27;100.00;99700.13;5010838;28;20205;-76
2023/01/25 03:33:10;;;;;;;24.43;13.83;;;;;;;2.21;100.00;99697.59;5011294;28;20233;-76
2023/01/25 03:35:37;;;;;;;22.37;12.33;;;;;;;2.22;100.00;99702.78;5011367;28;20703;-76
2023/01/25 03:38:04;;;;;;;23.83;13.47;;;;;;;2.29;100.00;99704.44;5011483;28;20216;-76
2023/01/25 03:40:30;;;;;;;22.90;12.40;;;;;;;2.30;100.00;99706.16;5010543;28;20209;-76
2023/01/25 03:42:57;;;;;;;20.60;12.70;;;;;;;2.34;100.00;99705.22;5011410;28;20252;-74
2023/01/25 03:45:23;;;;;;;24.57;14.10;;;;;;;2.30;100.00;99703.56;5011490;28;20205;-74
2023/01/25 03:47:50;;;;;;;20.60;12.37;;;;;;;2.29;100.00;99700.97;5011751;28;20299;-74
2023/01/25 03:50:16;;;;;;;22.03;12.23;;;;;;;2.32;100.00;99693.97;5010662;28;20217;-76
2023/01/25 03:52:47;;;;;;;23.10;12.70;;;;;;;2.32;100.00;99693.97;5011289;28;20248;-74
2023/01/25 03:55:13;;;;;;;22.03;13.17;;;;;;;2.32;100.00;99691.34;5013518;28;20621;-76
2023/01/25 03:57:40;;;;;;;22.80;13.27;;;;;;;2.34;100.00;99694.78;5015573;28;20554;-74
2023/01/25 04:00:08;;;;;;;24.30;12.63;;;;;;;2.25;100.00;99692.31;5014497;28;20213;-74
2023/01/25 04:02:35;;;;;;;21.63;13.00;;;;;;;2.29;100.00;99690.53;5015031;28;20304;-74
2023/01/25 04:05:02;;;;;;;20.33;11.90;;;;;;;2.31;100.00;99692.25;5015128;28;20213;-76
2023/01/25 04:07:28;;;;;;;21.67;12.27;;;;;;;2.30;100.00;99693.13;5015004;28;20217;-74
2023/01/25 04:09:56;;;;;;;20.20;11.43;;;;;;;2.26;100.00;99686.22;5014173;28;20209;-74
2023/01/25 04:12:22;;;;;;;21.20;12.60;;;;;;;2.25;100.00;99689.69;5015035;28;20212;-73
2023/01/25 04:14:49;;;;;;;20.43;11.90;;;;;;;2.24;100.00;99695.81;5014834;28;20260;-73
2023/01/25 04:17:15;;;;;;;21.73;12.23;;;;;;;2.22;100.00;99692.34;5014973;28;20205;-73
2023/01/25 04:19:42;;;;;;;21.70;12.57;;;;;;;2.23;100.00;99685.38;5014007;28;20700;-74
2023/01/25 04:22:08;;;;;;;20.60;11.93;;;;;;;2.29;100.00;99685.31;5014622;28;20205;-74
2023/01/25 04:24:35;;;;;;;22.17;12.37;;;;;;;2.30;100.00;99682.69;5014845;28;20230;-74
2023/01/25 04:27:03;;;;;;;22.43;12.10;;;;;;;2.33;100.00;99687.84;5014862;28;20209;-74
2023/01/25 04:29:29;;;;;;;21.43;11.37;;;;;;;2.32;100.00;99688.75;5013876;28;20209;-76
2023/01/25 04:31:56;;;;;;;19.47;11.50;;;;;;;2.21;100.00;99682.78;5014410;28;20208;-76
2023/01/25 04:34:23;;;;;;;19.00;11.53;;;;;;;2.21;100.00;99674.97;5014289;28;20240;-76
2023/01/25 04:36:49;;;;;;;21.17;12.03;;;;;;;2.26;100.00;99678.38;5014269;28;20210;-76
2023/01/25 04:39:16;;;;;;;20.60;11.73;;;;;;;2.31;100.00;99676.59;5013771;28;20206;-75
2023/01/25 04:41:43;;;;;;;19.53;11.40;;;;;;;2.31;100.00;99670.50;5014553;28;20217;-76
2023/01/25 04:44:11;;;;;;;18.83;10.93;;;;;;;2.27;100.00;99671.44;5028138;23;20233;-77
2023/01/25 04:46:37;;;;;;;18.20;11.33;;;;;;;2.19;100.00;99676.72;5014598;28;20217;-77
2023/01/25 04:49:04;;;;;;;20.13;11.30;;;;;;;2.25;100.00;99674.06;5013616;28;20213;-77
2023/01/25 04:51:30;;;;;;;18.13;10.97;;;;;;;2.29;100.00;99678.34;5013891;28;20220;-77
2023/01/25 04:53:57;;;;;;;18.63;11.50;;;;;;;2.30;100.00;99676.59;5014112;28;20240;-77
2023/01/25 04:56:23;;;;;;;19.30;11.10;;;;;;;2.27;100.00;99674.88;5014197;28;20695;-77
2023/01/25 04:58:50;;;;;;;19.87;11.17;;;;;;;2.32;100.00;99675.69;5013632;28;20620;-77
2023/01/25 05:01:17;;;;;;;16.90;10.37;;;;;;;2.32;100.00;99674.84;5014190;28;20216;-77
2023/01/25 05:03:44;;;;;;;19.00;10.90;;;;;;;2.26;100.00;99667.09;5014043;28;20230;-77
2023/01/25 05:06:10;;;;;;;17.93;10.37;;;;;;;2.24;100.00;99669.72;5013370;28;20222;-77
2023/01/25 05:08:37;;;;;;;16.97;9.77;;;;;;;2.25;100.00;99665.34;5014142;28;20714;-77
2023/01/25 05:11:03;;;;;;;18.57;9.87;;;;;;;2.27;100.00;99674.88;5013268;28;20217;-77
2023/01/25 05:13:30;;;;;;;15.67;10.03;;;;;;;2.23;100.00;99665.38;5013656;28;20237;-77
2023/01/25 05:15:56;;;;;;;17.13;10.03;;;;;;;2.26;100.00;99667.09;5013825;28;20221;-77
2023/01/25 05:18:24;;;;;;;16.23;10.10;;;;;;;2.22;100.00;99661.06;5013732;28;20213;-77
2023/01/25 05:20:54;;;;;;;15.70;10.17;;;;;;;2.24;100.00;99658.41;5013072;28;20244;-77
2023/01/25 05:23:20;;;;;;;15.57;8.93;;;;;;;2.26;100.00;99656.66;5013528;28;20716;-77
2023/01/25 05:28:31;;;;;;;17.00;9.90;;;;;;;2.24;100.00;99664.50;5013873;28;20312;-77
2023/01/25 05:30:57;;;;;;;15.97;8.87;;;;;;;2.30;100.00;99658.34;5012953;28;20213;-77
2023/01/25 05:33:25;;;;;;;16.67;9.40;;;;;;;2.34;100.00;99660.88;5013779;28;20237;-77
2023/01/25 05:35:52;;;;;;;15.77;9.67;;;;;;;2.29;100.00;99662.72;5013851;28;20221;-77
2023/01/25 05:38:19;;;;;;;14.03;9.67;;;;;;;2.27;100.00;99659.22;5013887;28;20267;-77
2023/01/25 05:40:45;;;;;;;16.30;9.50;;;;;;;2.29;100.00;99657.50;5012881;28;20214;-77
2023/01/25 05:43:11;;;;;;;17.30;9.97;;;;;;;2.25;100.00;99655.78;5013322;28;20706;-77
2023/01/25 05:45:39;;;;;;;16.43;9.20;;;;;;;2.26;100.00;99657.50;5013329;28;20582;-77
2023/01/25 05:48:06;;;;;;;16.07;9.77;;;;;;;2.21;100.00;99648.88;5013455;28;20574;-77
2023/01/25 05:50:33;;;;;;;14.23;8.33;;;;;;;2.19;100.00;99653.25;5012709;28;20213;-77
2023/01/25 05:53:00;;;;;;;15.50;9.67;;;;;;;2.18;100.00;99648.03;5013269;28;20213;-77
2023/01/25 05:55:26;;;;;;;14.47;9.67;;;;;;;2.21;100.00;99643.66;5013161;28;20217;-77
2023/01/25 05:57:55;;;;;;;15.13;9.10;;;;;;;2.30;100.00;99643.56;5012883;28;20220;-77
2023/01/25 06:00:22;;;;;;;17.57;8.93;;;;;;;2.20;100.00;99641.94;5012456;28;20217;-77
2023/01/25 06:02:49;;;;;;;13.63;8.47;;;;;;;2.21;100.00;99642.81;5012806;28;20228;-76
2023/01/25 06:05:15;;;;;;;16.50;9.20;;;;;;;2.20;100.00;99641.94;5012633;28;20270;-76
2023/01/25 06:07:43;;;;;;;15.30;8.77;;;;;;;2.15;100.00;99643.72;5012909;28;20644;-76
2023/01/25 06:10:10;;;;;;;16.13;9.40;;;;;;;2.19;100.00;99640.22;5012079;28;20214;-77
2023/01/25 06:12:38;;;;;;;15.20;8.50;;;;;;;2.22;100.00;99640.19;5012563;28;20211;-77
2023/01/25 06:15:05;;;;;;;15.70;9.13;;;;;;;2.17;100.00;99634.16;5012693;28;20237;-77
2023/01/25 06:17:32;;;;;;;16.97;8.70;;;;;;;2.17;100.00;99636.78;5012719;28;20217;-77
2023/01/25 06:19:58;;;;;;;14.73;9.30;;;;;;;2.19;100.00;99637.59;5011981;28;20214;-77
2023/01/25 06:22:25;;;;;;;14.07;8.60;;;;;;;2.19;100.00;99636.72;5012709;28;20207;-77
2023/01/25 06:24:52;;;;;;;15.27;8.90;;;;;;;2.10;100.00;99640.34;5012510;28;20225;-77
2023/01/25 06:27:19;;;;;;;13.53;8.30;;;;;;;2.11;100.00;99642.06;5012377;28;20217;-76
2023/01/25 06:29:45;;;;;;;14.00;9.03;;;;;;;2.07;100.00;99632.53;5011933;28;20582;-77
2023/01/25 06:32:12;;;;;;;14.87;8.57;;;;;;;2.07;100.00;99639.47;5013101;28;20213;-77
2023/01/25 06:34:38;;;;;;;15.93;9.27;;;;;;;2.08;100.00;99631.66;5012323;28;20236;-77
2023/01/25 06:37:05;;;;;;;16.57;9.17;;;;;;;2.16;100.00;99635.06;5012403;28;20209;-77
2023/01/25 06:39:31;;;;;;;13.73;8.43;;;;;;;2.20;100.00;99644.53;5011350;28;20220;-77
2023/01/25 06:41:59;;;;;;;15.30;8.90;;;;;;;2.21;100.00;99630.63;5012361;28;20684;-77
2023/01/25 06:44:25;;;;;;;12.90;8.63;;;;;;;2.18;100.00;99628.06;5012123;28;20241;-77
2023/01/25 06:46:52;;;;;;;13.07;8.23;;;;;;;2.23;100.00;99631.47;5012213;28;20217;-77
2023/01/25 06:49:18;;;;;;;14.13;8.13;;;;;;;2.18;100.00;99628.06;5011444;28;20209;-77
2023/01/25 06:51:45;;;;;;;13.90;8.50;;;;;;;2.21;100.00;99629.78;5012131;28;20216;-77
2023/01/25 06:54:11;;;;;;;14.37;9.50;;;;;;;2.20;100.00;99618.47;5011781;28;20704;-85
2023/01/25 06:56:38;;;;;;;14.83;9.10;;;;;;;2.26;100.00;99615.78;5012107;28;20555;-76
2023/01/25 06:59:05;;;;;;;14.83;8.07;;;;;;;2.28;100.00;99611.38;5011361;28;20224;-76
2023/01/25 07:01:32;;;;;;;13.37;8.07;;;;;;;2.18;100.00;99615.00;5012054;28;20209;-76
2023/01/25 07:03:59;;;;;;;12.47;8.37;;;;;;;2.15;100.00;99612.44;5011888;28;20268;-77
2023/01/25 07:06:27;;;;;;;13.50;8.07;;;;;;;2.11;100.00;99607.28;5011753;28;20213;-77
2023/01/25 07:08:53;;;;;;;13.77;8.37;;;;;;;2.15;100.00;99609.81;5010888;28;20221;-77
2023/01/25 07:11:19;;;;;;;13.80;8.17;;;;;;;2.17;100.00;99615.03;5011538;28;20209;-77
2023/01/25 07:13:47;;;;;;;13.93;8.67;;;;;;;2.18;100.00;99606.31;5011607;28;20616;-77
2023/01/25 07:16:17;;;;;;;14.17;8.20;;;;;;;2.19;100.00;99606.31;5011741;28;20209;-77
2023/01/25 07:18:44;;;;;;;13.87;8.13;;;;;;;2.20;100.00;99609.78;5011467;28;20213;-77
2023/01/25 07:21:12;;;;;;;13.63;8.57;;;;;;;2.23;100.00;99609.72;5011526;28;20209;-78
2023/01/25 07:23:38;;;;;;;14.47;8.47;;;;;;;2.23;100.00;99608.00;5011555;28;20229;-78
2023/01/25 07:26:06;;;;;;;12.40;7.57;;;;;;;2.27;100.00;99604.44;5011847;28;20219;-78
2023/01/25 07:28:33;;;;;;;13.37;7.77;;;;;;;2.28;100.00;99603.56;5010556;28;20216;-78
2023/01/25 07:31:04;;;;;;;11.30;7.83;;;;;;;2.28;100.00;99593.13;5010561;28;20214;-78
2023/01/25 07:33:32;;;;;;;13.27;7.73;;;;;;;2.35;100.00;99597.41;5011158;28;20233;-78
2023/01/25 07:36:00;;;;;;;13.83;7.63;;;;;;;2.30;100.00;99591.38;5011012;28;20212;-79
2023/01/25 07:38:26;;;;;;;13.27;8.00;;;;;;;2.24;100.00;99593.19;5011693;28;20578;-80
2023/01/25 07:40:53;;;;;;;12.73;7.83;;;;;;;2.26;100.00;99588.84;5010751;28;20217;-80
2023/01/25 07:43:19;;;;;;;13.03;7.70;;;;;;;2.32;100.00;99579.16;5011457;28;20236;-79
2023/01/25 07:45:47;;;;;;;12.20;7.70;;;;;;;2.26;100.00;99589.69;5011592;28;20205;-78
2023/01/25 07:48:14;;;;;;;11.70;7.30;;;;;;;2.30;100.00;99580.94;5011674;28;20221;-78
2023/01/25 07:50:45;;;;;;;11.80;7.57;;;;;;;2.37;100.00;99577.38;5011073;28;20224;-78
2023/01/25 07:53:12;;;;;;;11.73;8.07;;;;;;;2.35;100.00;99589.59;5011807;28;20706;-78
2023/01/25 07:55:38;;;;;;;12.80;7.47;;;;;;;2.22;100.00;99590.63;5011310;28;20237;-78
2023/01/25 07:58:05;;;;;;;12.60;7.33;;;;;;;2.24;100.00;99591.47;5011262;28;20205;-77
2023/01/25 08:00:31;;;;;;;13.10;8.07;;;;;;;2.35;100.00;99589.59;5011017;28;20288;-79
2023/01/25 08:02:58;;;;;;;10.77;7.20;;;;;;;2.25;100.00;99592.31;5011265;28;20217;-80
2023/01/25 08:05:24;;;;;;;13.13;8.17;;;;;;;2.25;100.00;99603.63;5011506;28;20268;-78
2023/01/25 08:07:52;;;;;;;12.23;8.90;;;;;;;2.28;100.00;99592.28;5010309;28;20434;-80
2023/01/25 08:10:19;;;;;;;11.13;8.17;;;;;;;2.40;100.00;99598.19;5010622;28;20213;-78
2023/01/25 08:12:46;;;;;;;13.77;8.37;;;;;;;2.35;100.00;99600.03;5011414;28;20209;-80
2023/01/25 08:15:13;;;;;;;11.90;7.47;;;;;;;2.40;100.00;99599.94;5011252;28;20248;-85
2023/01/25 08:17:40;;;;;;;12.48;9.10;;;;;;;2.46;100.00;99592.88;5010414;28;20529;-78
2023/01/25 08:20:08;;;;;;;15.37;8.17;;;;;;;2.46;100.00;99585.06;5010490;28;20616;-76
2023/01/25 08:22:35;;;;;;;11.00;7.57;;;;;;;2.37;100.00;99586.94;5011227;28;20248;-84
2023/01/25 08:25:03;;;;;;;11.57;7.33;;;;;;;2.40;100.00;99598.19;5011113;28;20226;-76
2023/01/25 08:27:29;;;;;;;14.33;7.77;;;;;;;2.39;100.00;99599.06;5011187;28;20224;-77
2023/01/25 08:29:56;;;;;;;11.10;7.10;;;;;;;2.37;100.00;99603.47;5009844;28;20214;-77
2023/01/25 08:32:22;;;;;;;11.90;7.70;;;;;;;2.33;100.00;99601.75;5010935;28;20229;-77
2023/01/25 08:34:49;;;;;;;13.13;8.00;;;;;;;2.37;100.00;99593.03;5009220;28;20233;-77
2023/01/25 08:37:15;;;;;;;14.10;7.77;;;;;;;2.30;100.00;99595.72;5008428;28;20213;-77
2023/01/25 08:39:42;;;;;;;14.60;7.83;;;;;;;2.35;100.00;99588.72;5008857;28;20296;-77
2023/01/25 08:42:09;;;;;;;11.67;7.93;;;;;;;2.41;100.00;99586.00;5012096;28;20209;-77
2023/01/25 08:44:36;;;;;;;14.07;8.27;;;;;;;2.41;100.00;99584.28;5011194;28;20237;-77
2023/01/25 08:47:02;;;;;;;13.23;8.53;;;;;;;2.42;100.00;99580.78;5013203;28;20209;-77
2023/01/25 08:49:29;;;;;;;12.10;7.90;;;;;;;2.42;100.00;99575.56;5012542;28;20216;-76
2023/01/25 08:51:57;;;;;;;11.33;7.23;;;;;;;2.37;100.00;99572.16;5013051;28;20701;-76
2023/01/25 08:54:23;;;;;;;12.00;7.67;;;;;;;2.37;100.00;99572.16;5013079;28;20237;-76
2023/01/25 08:56:50;;;;;;;11.63;7.50;;;;;;;2.29;100.00;99568.78;5013388;28;20252;-76
2023/01/25 08:59:18;;;;;;;10.80;7.00;;;;;;;2.27;100.00;99567.94;5011707;28;20214;-76
2023/01/25 09:01:44;;;;;;;11.97;7.90;;;;;;;2.30;100.00;99564.41;5013361;28;20220;-76
2023/01/25 09:04:10;;;;;;;11.20;7.60;;;;;;;2.38;100.00;99568.66;5013254;28;20631;-76
2023/01/25 09:06:37;;;;;;;13.47;7.77;;;;;;;2.43;100.00;99560.75;5012437;28;20213;-76
2023/01/25 09:09:04;;;;;;;13.17;7.70;;;;;;;2.42;100.00;99566.88;5012364;28;20582;-76
2023/01/25 09:11:35;;;;;;;12.17;8.03;;;;;;;2.45;100.00;99557.25;5013128;28;20209;-76
2023/01/25 09:14:02;;;;;;;11.53;7.40;;;;;;;2.45;100.00;99569.44;5012056;28;20615;-76
2023/01/25 09:16:30;;;;;;;12.03;7.80;;;;;;;2.46;100.00;99564.19;5013216;28;20228;-77
2023/01/25 09:18:58;;;;;;;12.30;7.80;;;;;;;2.46;100.00;99571.16;5011671;28;20256;-77
2023/01/25 09:21:25;;;;;;;11.70;8.00;;;;;;;2.51;100.00;99554.53;5013820;28;20229;-78
2023/01/25 09:23:53;;;;;;;11.30;7.63;;;;;;;2.50;100.00;99555.44;5013532;28;20230;-76
2023/01/25 09:26:20;;;;;;;11.20;7.90;;;;;;;2.55;100.00;99545.78;5014005;28;20206;-79
2023/01/25 09:28:49;;;;;;;13.00;7.47;;;;;;;2.46;100.00;99551.13;5013125;28;20232;-84
2023/01/25 09:31:15;;;;;;;13.17;8.47;;;;;;;2.51;100.00;99551.09;5013623;28;20213;-80
2023/01/25 09:33:43;;;;;;;12.83;7.90;;;;;;;2.54;100.00;99544.06;5013735;28;20240;-81
2023/01/25 09:36:10;;;;;;;12.53;7.70;;;;;;;2.53;100.00;99544.97;5013419;28;20233;-79
2023/01/25 09:38:37;;;;;;;13.83;8.13;;;;;;;2.62;100.00;99536.97;5013510;28;20213;-79
2023/01/25 09:41:26;;;;;;;14.67;8.07;;;;;;;2.59;100.00;99552.69;5012760;28;20213;-80
2023/01/25 09:44:20;;;;;;;14.00;8.10;;;;;;;2.60;100.00;99553.53;5013283;28;20331;-81
2023/01/25 09:46:51;;;;;;;13.20;8.10;;;;;;;2.61;100.00;99550.91;5013305;28;20562;-79
2023/01/25 09:49:35;;;;;;;12.37;7.77;;;;;;;2.63;100.00;99551.75;5012620;28;20213;-79
2023/01/25 09:52:24;;;;;;;13.33;8.43;;;;;;;2.60;100.00;99549.19;5012499;28;20701;-80
2023/01/25 09:54:51;;;;;;;13.57;8.50;;;;;;;2.59;100.00;99546.59;5013207;28;20260;-78
2023/01/25 09:57:25;;;;;;;13.40;7.30;;;;;;;2.54;100.00;99549.28;5013084;28;20692;-78
2023/01/25 09:59:53;;;;;;;11.20;7.40;;;;;;;2.57;100.00;99538.78;5012357;28;20680;-79
2023/01/25 10:02:35;;;;;;;12.73;8.50;;;;;;;2.56;100.00;99544.91;5013158;28;20210;-77
2023/01/25 10:05:10;;;;;;;11.83;7.97;;;;;;;2.57;100.00;99538.78;5012867;28;20316;-80
2023/01/25 10:07:50;;;;;;;12.63;8.37;;;;;;;2.64;100.00;99535.19;5012979;28;20219;-82
2023/01/25 10:10:21;;;;;;;12.70;8.27;;;;;;;2.65;100.00;99526.50;5012144;28;20243;-79
2023/01/25 10:12:47;;;;;;;13.27;8.53;;;;;;;2.55;100.00;99522.31;5012958;28;20586;-79
2023/01/25 10:15:19;;;;;;;16.90;9.60;;;;;;;2.59;100.00;99531.81;5012600;28;20229;-80
2023/01/25 10:17:48;;;;;;;14.50;9.30;;;;;;;2.66;100.00;99533.44;5012863;28;20217;-84
2023/01/25 10:20:24;;;;;;;12.57;8.30;;;;;;;2.74;100.00;99534.19;5012114;28;20214;-84
2023/01/25 10:22:58;;;;;;;15.50;9.00;;;;;;;2.68;100.00;99526.44;5012632;28;20219;-82
2023/01/25 10:25:31;;;;;;;13.30;8.60;;;;;;;2.76;100.00;99521.09;5012717;28;20216;-84
2023/01/25 10:28:21;;;;;;;14.00;8.73;;;;;;;2.77;100.00;99510.66;5012554;28;20227;-84
2023/01/25 10:30:53;;;;;;;14.33;8.30;;;;;;;2.73;100.00;99514.19;5011778;28;20205;-84
2023/01/25 10:33:20;;;;;;;14.77;8.93;;;;;;;2.69;100.00;99496.84;5012338;28;20233;-80
2023/01/25 10:35:49;;;;;;;14.53;9.20;;;;;;;2.68;100.00;99502.94;5012456;28;20252;-86
2023/01/25 10:38:21;;;;;;;14.63;8.83;;;;;;;2.63;100.00;99502.16;5012475;28;20214;-83
2023/01/25 10:40:54;;;;;;;13.93;9.27;;;;;;;2.68;100.00;99502.94;5011704;28;20222;-80
2023/01/25 10:45:51;;;;;;;13.17;8.73;;;;;;;2.68;100.00;99492.50;5011251;28;20260;-76
2023/01/25 10:48:20;;;;;;;12.57;8.03;;;;;;;2.64;100.00;99492.59;5017447;28;20675;-77
2023/01/25 10:50:52;;;;;;;16.47;9.70;;;;;;;2.69;100.00;99490.78;5018162;28;20209;-78
2023/01/25 10:53:28;;;;;;;14.33;8.47;;;;;;;2.72;100.00;99483.75;5027546;28;20209;-78
2023/01/25 10:56:22;;;;;;;14.63;8.97;;;;;;;2.69;100.00;99475.97;5008628;28;20245;-77
2023/01/25 10:58:50;;;;;;;13.33;8.37;;;;;;;2.67;100.00;99482.97;5004659;28;20217;-76
2023/01/25 11:01:31;;;;;;;13.97;8.83;;;;;;;2.63;100.00;99476.06;5007720;28;20245;-76
2023/01/25 11:03:59;;;;;;;16.77;9.43;;;;;;;2.67;100.00;99484.69;5003487;28;20720;-76
2023/01/25 11:06:34;;;;;;;15.90;9.33;;;;;;;2.62;100.00;99479.56;5008732;28;20210;-77
2023/01/25 11:09:01;;;;;;;14.57;8.83;;;;;;;2.59;100.00;99470.91;4998228;28;20210;-76
2023/01/25 11:11:34;;;;;;;15.07;9.33;;;;;;;2.57;100.00;99476.16;4993181;28;20202;-75
2023/01/25 11:14:01;;;;;;;14.10;8.63;;;;;;;2.58;100.00;99475.25;4992878;28;20230;-76
2023/01/25 11:16:31;;;;;;;13.77;9.13;;;;;;;2.58;100.00;99471.81;4992097;28;20242;-76
2023/01/25 11:19:01;;;;;;;16.07;9.37;;;;;;;2.66;100.00;99470.81;4991307;28;20206;-76
2023/01/25 11:21:30;;;;;;;15.00;9.60;;;;;;;2.61;100.00;99464.78;4992205;28;20237;-76
2023/01/25 11:24:01;;;;;;;15.70;10.00;;;;;;;2.55;100.00;99471.84;4992108;28;20320;-76
2023/01/25 11:26:30;;;;;;;15.77;9.27;;;;;;;2.56;100.00;99471.81;4992192;28;20202;-77
2023/01/25 11:29:08;;;;;;;16.37;9.27;;;;;;;2.57;100.00;99468.31;4991270;28;20217;-76
2023/01/25 11:31:34;;;;;;;15.33;9.20;;;;;;;2.58;100.00;99462.22;4991877;28;20256;-73